Time;durP1;ratioP1;P1;durP2;ratioP2;P2;SDS_P1;SDS_P2;PMS_P1;PMS_P2;Temp;Humidity;BMP_temperature;BMP_pressure;BME280_temperature;BME280_humidity;BME280_pressure;Samples;Min_cycle;Max_cycle;Signal;HPM_P1;HPM_P2
2022/10/18 00:02:10;;;;;;;0.00;0.00;;;;;;;14.32;100.00;99554.09;4833012;29;20236;-59
2022/10/18 00:04:37;;;;;;;0.00;0.00;;;;;;;14.39;100.00;99556.91;4836825;29;20247;-58
2022/10/18 00:07:04;;;;;;;0.00;0.00;;;;;;;14.41;100.00;99562.03;4839842;29;20244;-58
2022/10/18 00:09:30;;;;;;;0.00;0.00;;;;;;;14.47;100.00;99559.59;4835780;29;20325;-59
2022/10/18 00:11:59;;;;;;;0.00;0.00;;;;;;;14.50;100.00;99560.28;4843647;29;20294;-58
2022/10/18 00:14:26;;;;;;;0.00;0.00;;;;;;;14.55;100.00;99558.00;4844530;29;20386;-58
2022/10/18 00:16:52;;;;;;;0.00;0.00;;;;;;;14.56;100.00;99560.50;4845155;29;20250;-59
2022/10/18 00:19:19;;;;;;;0.00;0.00;;;;;;;14.62;100.00;99556.41;4839848;29;20301;-58
2022/10/18 00:21:46;;;;;;;0.00;0.00;;;;;;;14.75;100.00;99550.81;4842106;29;20288;-58
2022/10/18 00:24:12;;;;;;;0.00;0.00;;;;;;;14.72;100.00;99549.28;4839730;29;20619;-58
2022/10/18 00:26:39;;;;;;;0.00;0.00;;;;;;;14.75;100.00;99548.19;4842181;29;20277;-58
2022/10/18 00:29:06;;;;;;;0.00;0.00;;;;;;;14.82;100.00;99558.88;4843946;29;20310;-59
2022/10/18 00:31:35;;;;;;;0.00;0.00;;;;;;;14.86;100.00;99557.59;4843510;29;20295;-59
2022/10/18 00:34:03;;;;;;;0.00;0.00;;;;;;;14.89;100.00;99571.22;4846643;29;20817;-60
2022/10/18 00:36:31;;;;;;;0.00;0.00;;;;;;;14.90;100.00;99557.09;4841802;29;20254;-58
2022/10/18 00:38:58;;;;;;;0.00;0.00;;;;;;;14.92;100.00;99559.59;4845896;29;20247;-59
2022/10/18 00:41:27;;;;;;;0.00;0.00;;;;;;;14.96;100.00;99560.94;4843975;29;20241;-57
2022/10/18 00:43:57;;;;;;;0.00;0.00;;;;;;;15.02;100.00;99562.09;4842092;29;20236;-59
2022/10/18 00:46:28;;;;;;;0.00;0.00;;;;;;;15.05;100.00;99559.16;4842642;29;20291;-59
2022/10/18 00:48:56;;;;;;;0.00;0.00;;;;;;;15.03;100.00;99559.31;4846159;29;20235;-58
2022/10/18 00:51:25;;;;;;;0.00;0.00;;;;;;;15.14;100.00;99560.84;4843192;29;20243;-59
2022/10/18 00:53:52;;;;;;;0.00;0.00;;;;;;;15.14;100.00;99562.66;4845553;29;20719;-58
2022/10/18 00:56:20;;;;;;;0.00;0.00;;;;;;;15.13;100.00;99563.66;4844316;29;20626;-60
2022/10/18 00:58:48;;;;;;;0.00;0.00;;;;;;;15.13;100.00;99555.75;4845639;29;20295;-58
2022/10/18 01:01:14;;;;;;;0.00;0.00;;;;;;;15.17;100.00;99560.53;4838389;29;20676;-58
2022/10/18 01:03:43;;;;;;;0.00;0.00;;;;;;;15.19;100.00;99569.09;4845367;29;20575;-58
2022/10/18 01:06:09;;;;;;;0.00;0.00;;;;;;;15.24;100.00;99565.16;4841856;29;20288;-58
2022/10/18 01:08:57;;;;;;;0.00;0.00;;;;;;;15.32;100.00;99563.41;4844723;29;20243;-57
2022/10/18 01:11:38;;;;;;;0.00;0.00;;;;;;;15.38;100.00;99567.19;4846071;29;20246;-58
2022/10/18 01:14:18;;;;;;;0.00;0.00;;;;;;;15.44;100.00;99561.31;4847969;29;20551;-58
2022/10/18 01:16:52;;;;;;;0.00;0.00;;;;;;;15.44;100.00;99557.81;4841317;29;20553;-58
2022/10/18 01:19:44;;;;;;;0.00;0.00;;;;;;;15.46;100.00;99559.34;4844845;29;20238;-58
2022/10/18 01:22:17;;;;;;;0.00;0.00;;;;;;;15.55;100.00;99562.81;4848231;29;20297;-58
2022/10/18 01:24:58;;;;;;;0.00;0.00;;;;;;;15.60;100.00;99563.16;4848049;29;20280;-58
2022/10/18 01:27:43;;;;;;;0.00;0.00;;;;;;;15.63;100.00;99564.66;4844253;29;20231;-57
2022/10/18 01:30:37;;;;;;;0.00;0.00;;;;;;;15.59;100.00;99573.84;4845207;29;20243;-57
2022/10/18 01:33:12;;;;;;;0.00;0.00;;;;;;;15.59;100.00;99568.59;4846658;29;20247;-57
2022/10/18 01:35:44;;;;;;;0.00;0.00;;;;;;;15.58;100.00;99564.31;4846142;29;20265;-58
2022/10/18 01:38:15;;;;;;;0.00;0.00;;;;;;;15.56;100.00;99566.28;4846488;29;20249;-58
2022/10/18 01:40:45;;;;;;;0.00;0.00;;;;;;;15.60;100.00;99560.50;4850876;29;20239;-58
2022/10/18 01:43:13;;;;;;;0.00;0.00;;;;;;;15.58;100.00;99564.31;4843283;29;20240;-57
2022/10/18 01:45:42;;;;;;;0.00;0.00;;;;;;;15.58;100.00;99556.41;4847392;29;20231;-59
2022/10/18 01:48:10;;;;;;;0.00;0.00;;;;;;;15.56;100.00;99556.56;4845031;29;20778;-60
2022/10/18 01:50:36;;;;;;;0.00;0.00;;;;;;;15.57;100.00;99544.22;4847796;29;20723;-58
2022/10/18 01:53:03;;;;;;;0.00;0.00;;;;;;;15.58;100.00;99551.16;4848542;29;20246;-57
2022/10/18 01:55:37;;;;;;;0.00;0.00;;;;;;;15.52;100.00;99546.53;4841977;29;20244;-57
2022/10/18 01:58:08;;;;;;;0.00;0.00;;;;;;;15.53;100.00;99542.91;4848119;29;20818;-59
2022/10/18 02:00:40;;;;;;;0.00;0.00;;;;;;;15.57;100.00;99537.16;4842200;29;20288;-58
2022/10/18 02:03:17;;;;;;;0.00;0.00;;;;;;;15.55;100.00;99535.69;4841812;29;20283;-58
2022/10/18 02:05:48;;;;;;;0.00;0.00;;;;;;;15.62;100.00;99547.22;4848103;29;20240;-57
2022/10/18 02:08:24;;;;;;;0.00;0.00;;;;;;;15.60;100.00;99543.91;4847073;29;20251;-58
2022/10/18 02:10:54;;;;;;;0.00;0.00;;;;;;;15.55;100.00;99540.94;4845121;29;20664;-59
2022/10/18 02:13:23;;;;;;;0.00;0.00;;;;;;;15.54;100.00;99536.66;4842029;29;20244;-58
2022/10/18 02:15:56;;;;;;;0.00;0.00;;;;;;;15.48;100.00;99538.94;4848090;29;20303;-58
2022/10/18 02:18:29;;;;;;;0.00;0.00;;;;;;;15.45;100.00;99533.16;4843345;29;20246;-56
2022/10/18 02:20:57;;;;;;;0.00;0.00;;;;;;;15.41;100.00;99537.09;4844780;29;20244;-59
2022/10/18 02:23:26;;;;;;;0.00;0.00;;;;;;;15.34;100.00;99534.28;4842739;29;20303;-59
2022/10/18 02:25:53;;;;;;;0.00;0.00;;;;;;;15.26;100.00;99535.09;4847215;29;20247;-58
2022/10/18 02:28:20;;;;;;;0.00;0.00;;;;;;;15.17;100.00;99531.59;4843786;29;20303;-58
2022/10/18 02:30:53;;;;;;;0.00;0.00;;;;;;;15.10;100.00;99535.84;4846788;29;20298;-58
2022/10/18 02:33:29;;;;;;;0.00;0.00;;;;;;;15.04;100.00;99531.22;4844022;29;20244;-56
2022/10/18 02:36:02;;;;;;;0.00;0.00;;;;;;;14.95;100.00;99527.75;4845120;29;20797;-58
2022/10/18 02:38:31;;;;;;;0.00;0.00;;;;;;;14.87;100.00;99530.31;4846625;29;20247;-58
2022/10/18 02:40:58;;;;;;;0.00;0.00;;;;;;;14.87;100.00;99528.50;4848700;29;20239;-58
2022/10/18 02:43:25;;;;;;;0.00;0.00;;;;;;;14.83;100.00;99521.94;4841980;29;20250;-59
2022/10/18 02:45:51;;;;;;;0.00;0.00;;;;;;;14.75;100.00;99519.25;4845446;29;20320;-59
2022/10/18 02:48:18;;;;;;;0.00;0.00;;;;;;;14.76;100.00;99516.47;4846025;29;20242;-58
2022/10/18 02:50:46;;;;;;;0.00;0.00;;;;;;;14.85;100.00;99516.50;4845896;29;20231;-59
2022/10/18 02:53:12;;;;;;;0.00;0.00;;;;;;;14.84;100.00;99523.56;4842156;29;20310;-58
2022/10/18 02:55:39;;;;;;;0.00;0.00;;;;;;;14.90;100.00;99512.41;4844401;29;20268;-58
2022/10/18 02:58:05;;;;;;;0.00;0.00;;;;;;;15.26;100.00;99506.16;4846586;29;20579;-59
2022/10/18 03:00:32;;;;;;;0.00;0.00;;;;;;;15.64;99.77;99518.94;4842708;29;20247;-59
2022/10/18 03:02:58;;;;;;;0.00;0.00;;;;;;;15.91;96.15;99514.34;4849162;29;21237;-59
2022/10/18 03:05:25;;;;;;;0.00;0.00;;;;;;;16.01;95.38;99522.13;4844353;29;20297;-59
2022/10/18 03:07:53;;;;;;;0.00;0.00;;;;;;;16.18;92.82;99518.50;4845410;29;20243;-58
2022/10/18 03:10:19;;;;;;;0.00;0.00;;;;;;;16.28;90.45;99515.69;4841227;29;20255;-58
2022/10/18 03:12:46;;;;;;;0.00;0.00;;;;;;;16.35;89.30;99516.66;4844007;29;20245;-60
2022/10/18 03:15:12;;;;;;;0.00;0.00;;;;;;;16.33;90.19;99518.66;4839967;29;20291;-58
2022/10/18 03:17:39;;;;;;;0.00;0.00;;;;;;;16.54;87.13;99525.22;4845494;29;20300;-58
2022/10/18 03:20:06;;;;;;;0.00;0.00;;;;;;;16.56;87.14;99532.94;4846767;29;20243;-59
2022/10/18 03:22:33;;;;;;;0.00;0.00;;;;;;;16.52;87.77;99525.34;4844851;29;20244;-58
2022/10/18 03:25:01;;;;;;;0.00;0.00;;;;;;;16.50;88.23;99531.81;4844520;29;20719;-58
2022/10/18 03:27:27;;;;;;;0.00;0.00;;;;;;;16.50;88.34;99535.25;4844371;29;21390;-58
2022/10/18 03:29:54;;;;;;;0.00;0.00;;;;;;;16.52;87.77;99530.63;4848790;29;20249;-59
2022/10/18 03:32:20;;;;;;;0.00;0.00;;;;;;;16.62;86.32;99541.00;5066238;23;20235;-65
2022/10/18 03:34:47;;;;;;;0.00;0.00;;;;;;;16.61;86.78;99533.25;4879882;29;20980;-65
2022/10/18 03:37:13;;;;;;;0.00;0.00;;;;;;;16.73;86.33;99539.00;4876260;29;20243;-65
2022/10/18 03:39:40;;;;;;;0.00;0.00;;;;;;;16.94;83.28;99547.19;4879604;29;20714;-65
2022/10/18 03:42:08;;;;;;;0.00;0.00;;;;;;;17.04;82.77;99547.03;4866443;29;20243;-65
2022/10/18 03:44:34;;;;;;;0.00;0.00;;;;;;;17.13;83.96;99552.28;4864290;29;20721;-65
2022/10/18 03:47:01;;;;;;;0.00;0.00;;;;;;;17.10;84.23;99550.78;4866076;29;20241;-65
2022/10/18 03:49:27;;;;;;;0.00;0.00;;;;;;;17.21;84.60;99554.88;4863709;29;20299;-65
2022/10/18 03:51:54;;;;;;;0.00;0.00;;;;;;;17.15;85.03;99560.84;4862653;29;20299;-65
2022/10/18 03:54:21;;;;;;;0.00;0.00;;;;;;;17.11;84.99;99555.06;4859099;29;20289;-65
2022/10/18 03:56:47;;;;;;;0.00;0.00;;;;;;;17.04;86.51;99564.66;4867150;29;20248;-65
2022/10/18 03:59:15;;;;;;;0.00;0.00;;;;;;;16.93;86.68;99565.81;4858424;29;20237;-65
2022/10/18 04:01:42;;;;;;;0.00;0.00;;;;;;;16.85;88.26;99566.66;4864839;29;20246;-65
2022/10/18 04:04:09;;;;;;;0.00;0.00;;;;;;;16.81;88.16;99570.63;4861311;29;20733;-65
2022/10/18 04:06:35;;;;;;;0.00;0.00;;;;;;;16.77;89.22;99571.97;4863603;29;20305;-65
2022/10/18 04:09:02;;;;;;;0.00;0.00;;;;;;;16.75;90.64;99574.75;4864058;29;20246;-65
2022/10/18 04:11:28;;;;;;;0.00;0.00;;;;;;;16.71;91.43;99572.63;4861139;29;20741;-65
2022/10/18 04:13:55;;;;;;;0.00;0.00;;;;;;;16.72;90.04;99574.28;4863565;29;20776;-65
2022/10/18 04:16:23;;;;;;;0.00;0.00;;;;;;;16.76;89.49;99572.94;4853986;29;20239;-66
2022/10/18 04:18:49;;;;;;;0.00;0.00;;;;;;;16.73;89.38;99574.09;4865811;29;20240;-65
2022/10/18 04:21:16;;;;;;;0.00;0.00;;;;;;;16.79;87.39;99572.63;4861496;29;20298;-65
2022/10/18 04:23:43;;;;;;;0.00;0.00;;;;;;;16.74;89.13;99574.94;4862356;29;20781;-65
2022/10/18 04:26:10;;;;;;;0.00;0.00;;;;;;;16.71;89.62;99570.81;4859582;29;20938;-65
2022/10/18 04:28:38;;;;;;;0.00;0.00;;;;;;;16.70;90.27;99570.97;4864483;29;20246;-65
2022/10/18 04:31:06;;;;;;;0.00;0.00;;;;;;;16.66;90.38;99559.94;4866351;29;20233;-65
2022/10/18 04:33:34;;;;;;;0.00;0.00;;;;;;;16.60;92.28;99565.88;4864626;29;20248;-65
2022/10/18 04:36:01;;;;;;;0.00;0.00;;;;;;;16.53;92.19;99561.25;4867712;29;20242;-65
2022/10/18 04:38:27;;;;;;;0.00;0.00;;;;;;;16.51;92.14;99571.16;4862558;29;20247;-65
2022/10/18 04:40:54;;;;;;;0.00;0.00;;;;;;;16.50;92.12;99568.69;4864085;29;20295;-65
2022/10/18 04:43:20;;;;;;;0.00;0.00;;;;;;;16.53;90.96;99574.44;4860665;29;20233;-65
2022/10/18 04:45:47;;;;;;;0.00;0.00;;;;;;;16.71;87.65;99570.00;4867084;29;20706;-65
2022/10/18 04:48:14;;;;;;;0.00;0.00;;;;;;;16.84;86.24;99572.94;4863293;29;20233;-65
2022/10/18 04:50:42;;;;;;;0.00;0.00;;;;;;;16.98;84.16;99571.44;4875150;29;20296;-65
2022/10/18 04:53:13;;;;;;;0.00;0.00;;;;;;;17.14;83.35;99569.75;4863851;29;20228;-65
2022/10/18 04:55:43;;;;;;;0.00;0.00;;;;;;;17.25;80.48;99572.81;4866844;29;20303;-65
2022/10/18 04:58:10;;;;;;;0.00;0.00;;;;;;;17.30;81.50;99571.47;4867023;29;20280;-65
2022/10/18 05:00:37;;;;;;;0.00;0.00;;;;;;;17.38;80.40;99571.44;4867338;29;20245;-65
2022/10/18 05:03:03;;;;;;;0.00;0.00;;;;;;;17.46;79.96;99574.06;4867283;29;20247;-65
2022/10/18 05:05:30;;;;;;;0.00;0.00;;;;;;;17.60;79.56;99580.41;4865653;29;20309;-65
2022/10/18 05:07:58;;;;;;;0.00;0.00;;;;;;;17.58;79.73;99581.59;4868230;29;20246;-65
2022/10/18 05:10:24;;;;;;;0.00;0.00;;;;;;;17.63;79.51;99579.25;4864693;29;20640;-65
2022/10/18 05:12:51;;;;;;;0.00;0.00;;;;;;;17.68;78.24;99577.72;4865301;29;20732;-65
2022/10/18 05:15:17;;;;;;;0.00;0.00;;;;;;;17.73;78.04;99579.88;4862793;29;20260;-65
2022/10/18 05:17:46;;;;;;;0.00;0.00;;;;;;;17.70;78.82;99582.84;4867704;29;20237;-66
2022/10/18 05:20:13;;;;;;;0.00;0.00;;;;;;;17.72;78.28;99586.13;4865953;29;20239;-65
2022/10/18 05:22:40;;;;;;;0.00;0.00;;;;;;;17.71;78.77;99589.78;4866850;29;20700;-65
2022/10/18 05:25:08;;;;;;;0.00;0.00;;;;;;;17.68;78.12;99583.00;4863657;29;20230;-65
2022/10/18 05:27:35;;;;;;;0.00;0.00;;;;;;;17.80;75.79;99583.44;4862512;29;20241;-65
2022/10/18 05:30:02;;;;;;;0.00;0.00;;;;;;;17.81;77.20;99581.63;4867842;29;20237;-65
2022/10/18 05:32:29;;;;;;;0.00;0.00;;;;;;;17.88;77.19;99576.47;4866478;29;20252;-65
2022/10/18 05:34:55;;;;;;;0.00;0.00;;;;;;;17.91;76.40;99569.00;4867297;29;20240;-65
2022/10/18 05:37:22;;;;;;;0.00;0.00;;;;;;;17.90;76.49;99577.94;4863809;29;20298;-65
2022/10/18 05:39:48;;;;;;;0.00;0.00;;;;;;;17.93;76.42;99579.41;4866030;29;20238;-65
2022/10/18 05:42:16;;;;;;;0.00;0.00;;;;;;;17.91;76.41;99570.84;4862955;29;20782;-65
2022/10/18 05:44:43;;;;;;;0.00;0.00;;;;;;;17.91;76.16;99568.22;4866928;29;20756;-66
2022/10/18 05:47:09;;;;;;;0.00;0.00;;;;;;;17.94;75.29;99568.66;4862619;29;20237;-66
2022/10/18 05:49:36;;;;;;;0.00;0.00;;;;;;;17.97;75.49;99570.16;4869640;29;20241;-66
2022/10/18 05:52:02;;;;;;;0.00;0.00;;;;;;;17.97;75.53;99562.22;4867543;29;20281;-66
2022/10/18 05:54:29;;;;;;;0.00;0.00;;;;;;;17.96;76.01;99568.50;4861931;29;20245;-66
2022/10/18 05:56:55;;;;;;;0.00;0.00;;;;;;;17.96;75.39;99563.22;4871362;29;20234;-65
2022/10/18 05:59:24;;;;;;;0.00;0.00;;;;;;;17.93;76.44;99560.94;4863762;29;20249;-65
2022/10/18 06:01:50;;;;;;;0.00;0.00;;;;;;;17.91;76.55;99558.44;4866464;29;20252;-66
2022/10/18 06:04:17;;;;;;;0.00;0.00;;;;;;;17.90;76.97;99559.44;4863442;29;20252;-65
2022/10/18 06:06:43;;;;;;;0.00;0.00;;;;;;;17.90;76.60;99559.44;4865771;29;20241;-66
2022/10/18 06:09:10;;;;;;;0.00;0.00;;;;;;;17.91;76.88;99565.56;4860160;29;20241;-66
2022/10/18 06:11:37;;;;;;;0.00;0.00;;;;;;;17.92;76.69;99559.28;4865564;29;20724;-65
2022/10/18 06:14:03;;;;;;;0.00;0.00;;;;;;;17.99;75.80;99558.41;4866101;29;20249;-65
2022/10/18 06:16:31;;;;;;;0.00;0.00;;;;;;;18.07;75.02;99560.16;4862414;29;20328;-65
2022/10/18 06:18:59;;;;;;;0.00;0.00;;;;;;;18.08;74.81;99566.28;4864248;29;20240;-65
2022/10/18 06:21:26;;;;;;;0.00;0.00;;;;;;;18.09;74.45;99562.66;4860977;29;20250;-65
2022/10/18 06:23:54;;;;;;;0.00;0.00;;;;;;;18.15;74.38;99570.69;4864981;29;21002;-65
2022/10/18 06:26:21;;;;;;;0.00;0.00;;;;;;;18.21;73.50;99571.81;4860577;29;20237;-65
2022/10/18 06:28:48;;;;;;;0.00;0.00;;;;;;;18.22;74.17;99580.53;4865039;29;20239;-65
2022/10/18 06:31:14;;;;;;;0.00;0.00;;;;;;;18.18;75.30;99585.38;4862405;29;20244;-65
2022/10/18 06:33:42;;;;;;;0.00;0.00;;;;;;;18.12;76.89;99594.81;4869994;29;20241;-65
2022/10/18 06:36:12;;;;;;;0.00;0.00;;;;;;;18.07;77.24;99597.16;4861661;29;20233;-65
2022/10/18 06:38:38;;;;;;;0.00;0.00;;;;;;;18.06;78.73;99600.00;4865457;29;20245;-65
2022/10/18 06:41:06;;;;;;;0.00;0.00;;;;;;;18.11;76.29;99595.00;4864090;29;20412;-65
2022/10/18 06:43:33;;;;;;;0.00;0.00;;;;;;;18.18;74.06;99597.75;4863010;29;20229;-65
2022/10/18 06:46:02;;;;;;;0.00;0.00;;;;;;;18.19;77.13;99605.50;4863868;29;20230;-65
2022/10/18 06:48:28;;;;;;;0.00;0.00;;;;;;;18.15;78.72;99607.66;4861750;29;20328;-65
2022/10/18 06:50:58;;;;;;;0.00;0.00;;;;;;;18.15;78.37;99602.38;4864074;29;20239;-65
2022/10/18 06:53:25;;;;;;;0.00;0.00;;;;;;;18.22;79.14;99606.97;4862166;29;20712;-65
2022/10/18 06:55:51;;;;;;;0.00;0.00;;;;;;;18.20;78.46;99609.81;4866684;29;20301;-65
2022/10/18 06:58:18;;;;;;;0.00;0.00;;;;;;;18.32;78.42;99630.53;4861609;29;20242;-65
2022/10/18 07:00:45;;;;;;;0.00;0.00;;;;;;;18.36;77.42;99635.28;4863800;29;20229;-65
2022/10/18 07:03:12;;;;;;;0.00;0.00;;;;;;;18.33;77.48;99638.28;4862475;29;20332;-65
2022/10/18 07:05:39;;;;;;;0.00;0.00;;;;;;;18.51;77.78;99639.78;4862506;29;20289;-65
2022/10/18 07:08:06;;;;;;;0.00;0.00;;;;;;;18.56;78.37;99642.72;4865202;29;20261;-65
2022/10/18 07:10:33;;;;;;;0.00;0.00;;;;;;;18.62;78.17;99652.59;4858507;29;20260;-65
2022/10/18 07:13:00;;;;;;;0.00;0.00;;;;;;;18.64;78.14;99647.94;4865366;29;20247;-66
2022/10/18 07:15:26;;;;;;;0.00;0.00;;;;;;;18.70;77.16;99655.16;4861169;29;20246;-65
2022/10/18 07:17:53;;;;;;;0.00;0.00;;;;;;;18.59;77.81;99656.41;4861018;29;20708;-66
2022/10/18 07:20:19;;;;;;;0.00;0.00;;;;;;;18.56;78.71;99650.66;4861219;29;20659;-66
2022/10/18 07:22:46;;;;;;;0.00;0.00;;;;;;;18.56;78.76;99656.75;4864829;29;20241;-65
2022/10/18 07:25:14;;;;;;;0.00;0.00;;;;;;;18.39;80.01;99671.13;4864642;29;20241;-66
2022/10/18 07:27:42;;;;;;;0.00;0.00;;;;;;;18.18;82.70;99669.09;4864256;29;20247;-66
2022/10/18 07:30:11;;;;;;;0.00;0.00;;;;;;;18.08;82.35;99678.06;4859892;29;20241;-65
2022/10/18 07:32:37;;;;;;;0.00;0.00;;;;;;;18.05;81.49;99682.88;4863691;29;20243;-65
2022/10/18 07:35:07;;;;;;;0.00;0.00;;;;;;;17.96;82.72;99693.47;4863599;29;20811;-65
2022/10/18 07:37:34;;;;;;;0.00;0.00;;;;;;;17.81;83.81;99698.66;4862206;29;20574;-65
2022/10/18 07:40:00;;;;;;;0.00;0.00;;;;;;;17.68;84.99;99706.28;4866893;29;20253;-65
2022/10/18 07:42:28;;;;;;;0.00;0.00;;;;;;;17.68;85.33;99704.47;4860992;29;20305;-65
2022/10/18 07:44:55;;;;;;;0.00;0.00;;;;;;;17.68;86.04;99695.72;4863314;29;20246;-65
2022/10/18 07:47:21;;;;;;;0.00;0.00;;;;;;;17.76;85.91;99703.63;4861482;29;20297;-66
2022/10/18 07:49:48;;;;;;;0.00;0.00;;;;;;;17.80;85.68;99702.28;4864162;29;20237;-65
2022/10/18 07:52:14;;;;;;;0.00;0.00;;;;;;;17.82;86.21;99702.09;4863731;29;20285;-65
2022/10/18 07:54:41;;;;;;;0.00;0.00;;;;;;;17.89;85.64;99712.81;4868432;29;20249;-65
2022/10/18 07:57:07;;;;;;;0.00;0.00;;;;;;;17.80;85.59;99710.22;4861418;29;20242;-65
2022/10/18 07:59:37;;;;;;;0.00;0.00;;;;;;;17.85;83.88;99712.31;4864936;29;20308;-65
2022/10/18 08:02:04;;;;;;;0.00;0.00;;;;;;;17.76;83.53;99723.91;4862290;29;20245;-65
2022/10/18 08:04:30;;;;;;;0.00;0.00;;;;;;;17.48;86.19;99722.53;4863655;29;20589;-65
2022/10/18 08:06:57;;;;;;;0.00;0.00;;;;;;;17.30;87.38;99728.00;4861666;29;20240;-65
2022/10/18 08:09:23;;;;;;;0.00;0.00;;;;;;;17.19;87.33;99718.59;4862198;29;20245;-65
2022/10/18 08:11:50;;;;;;;0.00;0.00;;;;;;;17.13;87.82;99716.63;4863430;29;20249;-65
2022/10/18 08:14:16;;;;;;;0.00;0.00;;;;;;;17.11;89.08;99713.34;4863097;29;20288;-65
2022/10/18 08:16:44;;;;;;;0.00;0.00;;;;;;;17.07;89.83;99717.28;4866902;29;20237;-65
2022/10/18 08:19:11;;;;;;;0.00;0.00;;;;;;;17.06;89.72;99721.75;4861022;29;20236;-65
2022/10/18 08:21:39;;;;;;;0.00;0.00;;;;;;;17.09;89.21;99726.72;4863857;29;20738;-65
2022/10/18 08:24:06;;;;;;;0.00;0.00;;;;;;;16.91;89.73;99732.13;4865415;29;20296;-65
2022/10/18 08:26:33;;;;;;;0.00;0.00;;;;;;;16.88;89.89;99729.00;4859708;29;20698;-65
2022/10/18 08:28:59;;;;;;;0.00;0.00;;;;;;;16.84;90.69;99733.78;4865130;29;20326;-65
2022/10/18 08:31:26;;;;;;;0.00;0.00;;;;;;;16.95;90.48;99737.88;4862830;29;20824;-65
2022/10/18 08:33:56;;;;;;;0.00;0.00;;;;;;;16.91;91.15;99744.47;4865187;29;20244;-65
2022/10/18 08:36:23;;;;;;;0.00;0.00;;;;;;;16.88;91.60;99743.00;4862771;29;20238;-65
2022/10/18 08:38:49;;;;;;;0.00;0.00;;;;;;;16.89;91.56;99742.03;4862202;29;21092;-65
2022/10/18 08:41:38;;;;;;;0.00;0.00;;;;;;;17.02;90.91;99738.06;4859850;29;20239;-65
2022/10/18 08:44:08;;;;;;;0.00;0.00;;;;;;;17.06;90.93;99748.16;4862729;29;20241;-65
2022/10/18 08:46:38;;;;;;;0.00;0.00;;;;;;;17.20;91.73;99744.00;4859518;29;20284;-65
2022/10/18 08:49:11;;;;;;;0.00;0.00;;;;;;;17.43;90.10;99738.03;4862671;29;20237;-65
2022/10/18 08:51:42;;;;;;;0.00;0.00;;;;;;;17.62;88.13;99739.47;4859822;29;20712;-65
2022/10/18 08:54:13;;;;;;;0.00;0.00;;;;;;;17.79;88.19;99739.41;4858666;29;20302;-65
2022/10/18 08:56:42;;;;;;;0.00;0.00;;;;;;;18.05;83.81;99749.75;4861471;29;20944;-65
2022/10/18 08:59:10;;;;;;;0.00;0.00;;;;;;;18.24;82.83;99745.03;4863381;29;20237;-65
2022/10/18 09:01:45;;;;;;;0.00;0.00;;;;;;;18.36;82.37;99742.84;4857245;29;20917;-66
2022/10/18 09:04:33;;;;;;;0.00;0.00;;;;;;;18.38;83.16;99741.66;4857185;29;20779;-66
2022/10/18 09:07:15;;;;;;;0.00;0.00;;;;;;;18.77;80.80;99745.19;4864102;29;20240;-66
2022/10/18 09:09:50;;;;;;;0.00;0.00;;;;;;;18.85;79.46;99736.38;4860435;29;20252;-66
2022/10/18 09:12:34;;;;;;;0.00;0.00;;;;;;;19.16;78.42;99743.41;4859924;29;20810;-66
2022/10/18 09:15:14;;;;;;;0.00;0.00;;;;;;;19.18;79.15;99738.75;4863372;29;20717;-66
2022/10/18 09:17:50;;;;;;;0.00;0.00;;;;;;;19.35;76.82;99744.75;4861261;29;20245;-66
2022/10/18 09:20:22;;;;;;;0.00;0.00;;;;;;;19.40;74.77;99739.72;4862920;29;20240;-66
2022/10/18 09:22:53;;;;;;;0.00;0.00;;;;;;;19.02;75.57;99740.56;4864792;29;20773;-66
2022/10/18 09:25:22;;;;;;;0.00;0.00;;;;;;;18.85;77.21;99728.44;4860580;29;20241;-66
2022/10/18 09:28:14;;;;;;;0.00;0.00;;;;;;;18.71;78.38;99725.56;4863214;29;20233;-66
2022/10/18 09:30:49;;;;;;;0.00;0.00;;;;;;;18.67;78.57;99737.50;4863509;29;20248;-66
2022/10/18 09:33:28;;;;;;;0.00;0.00;;;;;;;18.76;78.41;99742.75;4864601;29;20235;-66
2022/10/18 09:35:59;;;;;;;0.00;0.00;;;;;;;18.81;76.95;99743.84;4866425;29;20241;-66
2022/10/18 09:38:30;;;;;;;0.00;0.00;;;;;;;19.05;76.86;99749.97;4865178;29;20237;-66
2022/10/18 09:41:00;;;;;;;0.00;0.00;;;;;;;19.35;74.99;99755.31;4865810;29;20238;-66
2022/10/18 09:43:38;;;;;;;0.00;0.00;;;;;;;19.69;73.29;99759.25;4861326;29;20565;-66
2022/10/18 09:46:06;;;;;;;0.00;0.00;;;;;;;20.01;72.08;99762.56;4862378;29;20235;-66
2022/10/18 09:48:41;;;;;;;0.00;0.00;;;;;;;20.31;70.10;99759.88;4862113;29;20693;-66
2022/10/18 09:51:12;;;;;;;0.00;0.00;;;;;;;20.42;70.23;99760.41;4866271;29;20727;-66
2022/10/18 09:53:46;;;;;;;0.00;0.00;;;;;;;20.63;69.13;99762.25;4863467;29;20232;-65
2022/10/18 09:56:17;;;;;;;0.00;0.00;;;;;;;20.68;68.06;99770.44;4865295;29;20243;-66
2022/10/18 09:58:46;;;;;;;0.00;0.00;;;;;;;20.35;70.28;99771.75;4864631;29;20235;-65
2022/10/18 10:01:16;;;;;;;0.00;0.00;;;;;;;20.33;70.44;99763.16;4862709;29;20245;-66
2022/10/18 10:03:42;;;;;;;0.00;0.00;;;;;;;20.32;70.35;99764.16;4865820;29;20239;-66
2022/10/18 10:06:26;;;;;;;0.00;0.00;;;;;;;20.77;67.51;99769.34;4865435;29;20712;-66
2022/10/18 10:08:59;;;;;;;0.00;0.00;;;;;;;20.84;68.97;99760.63;4867450;29;20242;-65
2022/10/18 10:11:31;;;;;;;0.00;0.00;;;;;;;20.85;68.35;99763.09;4861205;29;20769;-65
2022/10/18 10:14:06;;;;;;;0.00;0.00;;;;;;;20.73;69.21;99757.44;4865794;29;20250;-65
2022/10/18 10:16:33;;;;;;;0.00;0.00;;;;;;;20.65;67.54;99761.06;4863381;29;20690;-65
2022/10/18 10:19:00;;;;;;;0.00;0.00;;;;;;;20.71;68.37;99762.13;4865920;29;20245;-65
2022/10/18 10:21:28;;;;;;;0.00;0.00;;;;;;;20.69;67.37;99766.78;4862374;29;20237;-65
2022/10/18 10:23:57;;;;;;;0.00;0.00;;;;;;;20.30;68.10;99765.34;4862556;29;20230;-65
2022/10/18 10:26:28;;;;;;;0.00;0.00;;;;;;;20.34;69.71;99761.31;4865098;29;20238;-65
2022/10/18 10:28:57;;;;;;;0.00;0.00;;;;;;;20.24;70.33;99768.75;4866862;29;20578;-65
2022/10/18 10:31:28;;;;;;;0.00;0.00;;;;;;;20.25;69.35;99759.78;4862812;29;20234;-65
2022/10/18 10:34:03;;;;;;;0.00;0.00;;;;;;;20.32;70.63;99753.56;4865882;29;20234;-65
2022/10/18 10:36:33;;;;;;;0.00;0.00;;;;;;;20.21;70.99;99754.84;4862184;29;20248;-65
2022/10/18 10:39:05;;;;;;;0.00;0.00;;;;;;;20.23;71.88;99749.38;4863223;29;20251;-65
2022/10/18 10:41:31;;;;;;;0.00;0.00;;;;;;;20.20;72.18;99755.84;4852908;29;20605;-65
2022/10/18 10:43:58;;;;;;;0.00;0.00;;;;;;;20.38;71.11;99765.25;4859936;29;20244;-66
2022/10/18 10:46:34;;;;;;;0.00;0.00;;;;;;;20.46;69.54;99762.47;4862953;29;20244;-66
2022/10/18 10:49:01;;;;;;;0.00;0.00;;;;;;;20.59;69.56;99760.97;4867706;29;20744;-65
2022/10/18 10:51:30;;;;;;;0.00;0.00;;;;;;;20.72;69.00;99762.91;4863993;29;20673;-65
2022/10/18 10:54:01;;;;;;;0.00;0.00;;;;;;;20.70;69.27;99759.63;4866546;29;20237;-66
2022/10/18 10:56:29;;;;;;;0.00;0.00;;;;;;;20.47;69.89;99756.16;4861851;29;20286;-66
2022/10/18 10:59:01;;;;;;;0.00;0.00;;;;;;;20.73;69.38;99757.44;4863392;29;20375;-66
2022/10/18 11:01:32;;;;;;;0.00;0.00;;;;;;;20.74;69.69;99752.94;4859679;29;20234;-66
2022/10/18 11:04:02;;;;;;;0.00;0.00;;;;;;;20.85;67.28;99759.63;4862694;29;20266;-66
2022/10/18 11:06:39;;;;;;;0.00;0.00;;;;;;;20.73;68.45;99759.25;4867101;29;20240;-64
2022/10/18 11:09:17;;;;;;;0.00;0.00;;;;;;;20.71;69.26;99764.78;4865997;29;20233;-64
2022/10/18 11:12:01;;;;;;;0.00;0.00;;;;;;;20.84;69.30;99758.78;4861066;29;20254;-65
2022/10/18 11:14:31;;;;;;;0.00;0.00;;;;;;;20.70;70.13;99760.47;4861056;29;20964;-65
2022/10/18 11:17:07;;;;;;;0.00;0.00;;;;;;;20.85;67.55;99763.09;4861893;29;20242;-65
2022/10/18 11:19:40;;;;;;;0.00;0.00;;;;;;;20.90;68.03;99759.88;4862764;29;20249;-66
2022/10/18 11:22:14;;;;;;;0.00;0.00;;;;;;;20.92;68.47;99763.97;4865699;29;20672;-66
2022/10/18 11:24:43;;;;;;;0.00;0.00;;;;;;;20.92;68.86;99760.50;4862994;29;20695;-64
2022/10/18 11:27:19;;;;;;;0.00;0.00;;;;;;;20.98;68.24;99762.41;4860426;29;20573;-65
2022/10/18 11:30:01;;;;;;;0.00;0.00;;;;;;;21.11;68.87;99764.31;4862915;29;20324;-64
2022/10/18 11:32:35;;;;;;;0.00;0.00;;;;;;;20.76;69.05;99759.72;4860924;29;20290;-64
2022/10/18 11:35:22;;;;;;;0.00;0.00;;;;;;;20.82;69.67;99762.66;4862673;29;20300;-65
2022/10/18 11:38:10;;;;;;;0.00;0.00;;;;;;;21.08;68.69;99760.25;4862282;29;20714;-65
2022/10/18 11:40:50;;;;;;;0.00;0.00;;;;;;;21.28;67.46;99756.09;4861317;29;20235;-65
2022/10/18 11:43:23;;;;;;;0.00;0.00;;;;;;;21.68;66.38;99762.50;4861073;29;20229;-65